sensor_id;sensor_type;location;lat;lon;timestamp;P1;durP1;ratioP1;P2;durP2;ratioP2
6825;SDS011;3451;52.476;13.316;2023-08-30T00:01:30;2.53;;;2.10;;
6825;SDS011;3451;52.476;13.316;2023-08-30T00:03:56;3.37;;;2.30;;
6825;SDS011;3451;52.476;13.316;2023-08-30T00:06:22;4.53;;;2.30;;
6825;SDS011;3451;52.476;13.316;2023-08-30T00:08:49;3.13;;;2.13;;
6825;SDS011;3451;52.476;13.316;2023-08-30T00:11:16;4.47;;;2.13;;
6825;SDS011;3451;52.476;13.316;2023-08-30T00:13:42;3.07;;;2.10;;
6825;SDS011;3451;52.476;13.316;2023-08-30T00:16:08;2.83;;;1.97;;
6825;SDS011;3451;52.476;13.316;2023-08-30T00:18:35;2.60;;;2.00;;
6825;SDS011;3451;52.476;13.316;2023-08-30T00:21:01;2.70;;;2.20;;
6825;SDS011;3451;52.476;13.316;2023-08-30T00:23:28;4.07;;;2.50;;
6825;SDS011;3451;52.476;13.316;2023-08-30T00:25:54;3.97;;;2.03;;
6825;SDS011;3451;52.476;13.316;2023-08-30T00:28:20;3.50;;;2.10;;
6825;SDS011;3451;52.476;13.316;2023-08-30T00:30:52;3.90;;;2.23;;
6825;SDS011;3451;52.476;13.316;2023-08-30T00:33:18;3.60;;;2.00;;
6825;SDS011;3451;52.476;13.316;2023-08-30T00:35:44;2.10;;;1.90;;
6825;SDS011;3451;52.476;13.316;2023-08-30T00:38:11;4.13;;;2.50;;
6825;SDS011;3451;52.476;13.316;2023-08-30T00:40:38;2.87;;;2.00;;
6825;SDS011;3451;52.476;13.316;2023-08-30T00:43:05;3.23;;;2.20;;
6825;SDS011;3451;52.476;13.316;2023-08-30T00:45:32;3.07;;;2.33;;
6825;SDS011;3451;52.476;13.316;2023-08-30T00:47:59;3.27;;;2.30;;
6825;SDS011;3451;52.476;13.316;2023-08-30T00:50:25;6.23;;;2.40;;
6825;SDS011;3451;52.476;13.316;2023-08-30T00:52:51;5.27;;;2.40;;
6825;SDS011;3451;52.476;13.316;2023-08-30T00:55:18;5.90;;;2.50;;
6825;SDS011;3451;52.476;13.316;2023-08-30T00:57:44;2.40;;;2.07;;
6825;SDS011;3451;52.476;13.316;2023-08-30T01:00:13;2.67;;;2.20;;
6825;SDS011;3451;52.476;13.316;2023-08-30T01:02:39;3.20;;;2.10;;
6825;SDS011;3451;52.476;13.316;2023-08-30T01:05:06;4.47;;;2.20;;
6825;SDS011;3451;52.476;13.316;2023-08-30T01:07:32;3.20;;;2.10;;
6825;SDS011;3451;52.476;13.316;2023-08-30T01:09:59;4.93;;;2.50;;
6825;SDS011;3451;52.476;13.316;2023-08-30T01:12:29;5.30;;;2.30;;
6825;SDS011;3451;52.476;13.316;2023-08-30T01:15:06;3.17;;;2.07;;
6825;SDS011;3451;52.476;13.316;2023-08-30T01:17:33;2.20;;;2.00;;
6825;SDS011;3451;52.476;13.316;2023-08-30T01:20:00;3.43;;;2.30;;
6825;SDS011;3451;52.476;13.316;2023-08-30T01:25:31;4.83;;;2.13;;
6825;SDS011;3451;52.476;13.316;2023-08-30T01:28:01;3.53;;;2.23;;
6825;SDS011;3451;52.476;13.316;2023-08-30T01:30:27;3.30;;;2.30;;
6825;SDS011;3451;52.476;13.316;2023-08-30T01:32:54;3.20;;;2.27;;
6825;SDS011;3451;52.476;13.316;2023-08-30T01:35:22;4.67;;;2.30;;
6825;SDS011;3451;52.476;13.316;2023-08-30T01:37:49;3.63;;;2.57;;
6825;SDS011;3451;52.476;13.316;2023-08-30T01:40:16;6.17;;;2.30;;
6825;SDS011;3451;52.476;13.316;2023-08-30T01:42:43;2.80;;;2.10;;
6825;SDS011;3451;52.476;13.316;2023-08-30T01:45:11;3.53;;;2.37;;
6825;SDS011;3451;52.476;13.316;2023-08-30T01:47:40;3.20;;;2.33;;
6825;SDS011;3451;52.476;13.316;2023-08-30T01:50:08;6.47;;;2.53;;
6825;SDS011;3451;52.476;13.316;2023-08-30T01:52:35;2.60;;;2.30;;
6825;SDS011;3451;52.476;13.316;2023-08-30T01:55:02;3.87;;;2.10;;
6825;SDS011;3451;52.476;13.316;2023-08-30T01:57:29;3.10;;;2.20;;
6825;SDS011;3451;52.476;13.316;2023-08-30T01:59:56;5.47;;;2.33;;
6825;SDS011;3451;52.476;13.316;2023-08-30T02:02:22;4.90;;;2.53;;
6825;SDS011;3451;52.476;13.316;2023-08-30T02:04:48;4.73;;;2.27;;
6825;SDS011;3451;52.476;13.316;2023-08-30T02:07:20;3.00;;;2.13;;
6825;SDS011;3451;52.476;13.316;2023-08-30T02:12:20;4.83;;;2.20;;
6825;SDS011;3451;52.476;13.316;2023-08-30T02:14:48;3.03;;;2.30;;
6825;SDS011;3451;52.476;13.316;2023-08-30T02:17:15;4.53;;;2.50;;
6825;SDS011;3451;52.476;13.316;2023-08-30T02:19:44;3.93;;;2.40;;
6825;SDS011;3451;52.476;13.316;2023-08-30T02:22:11;3.20;;;2.10;;
6825;SDS011;3451;52.476;13.316;2023-08-30T02:24:38;4.23;;;2.33;;
6825;SDS011;3451;52.476;13.316;2023-08-30T02:27:04;3.80;;;2.63;;
6825;SDS011;3451;52.476;13.316;2023-08-30T02:29:30;4.80;;;2.40;;
6825;SDS011;3451;52.476;13.316;2023-08-30T02:31:57;3.10;;;2.60;;
6825;SDS011;3451;52.476;13.316;2023-08-30T02:34:23;3.57;;;2.37;;
6825;SDS011;3451;52.476;13.316;2023-08-30T02:36:49;5.00;;;2.40;;
6825;SDS011;3451;52.476;13.316;2023-08-30T02:39:15;4.30;;;2.90;;
6825;SDS011;3451;52.476;13.316;2023-08-30T02:41:42;3.77;;;2.70;;
6825;SDS011;3451;52.476;13.316;2023-08-30T02:44:08;3.50;;;2.30;;
6825;SDS011;3451;52.476;13.316;2023-08-30T02:46:36;3.97;;;2.03;;
6825;SDS011;3451;52.476;13.316;2023-08-30T02:49:04;3.13;;;2.30;;
6825;SDS011;3451;52.476;13.316;2023-08-30T02:51:30;3.60;;;2.67;;
6825;SDS011;3451;52.476;13.316;2023-08-30T02:53:56;3.70;;;2.53;;
6825;SDS011;3451;52.476;13.316;2023-08-30T02:56:23;5.10;;;2.47;;
6825;SDS011;3451;52.476;13.316;2023-08-30T02:58:49;4.17;;;2.43;;
6825;SDS011;3451;52.476;13.316;2023-08-30T03:01:15;5.03;;;2.20;;
6825;SDS011;3451;52.476;13.316;2023-08-30T03:03:42;2.60;;;2.20;;
6825;SDS011;3451;52.476;13.316;2023-08-30T03:06:08;3.53;;;2.20;;
6825;SDS011;3451;52.476;13.316;2023-08-30T03:08:34;2.40;;;2.10;;
6825;SDS011;3451;52.476;13.316;2023-08-30T03:11:10;3.50;;;2.00;;
6825;SDS011;3451;52.476;13.316;2023-08-30T03:13:37;6.43;;;2.50;;
6825;SDS011;3451;52.476;13.316;2023-08-30T03:16:10;4.93;;;2.17;;
6825;SDS011;3451;52.476;13.316;2023-08-30T03:18:38;4.17;;;2.27;;
6825;SDS011;3451;52.476;13.316;2023-08-30T03:21:04;4.60;;;2.17;;
6825;SDS011;3451;52.476;13.316;2023-08-30T03:23:31;3.83;;;1.90;;
6825;SDS011;3451;52.476;13.316;2023-08-30T03:25:58;4.83;;;2.33;;
6825;SDS011;3451;52.476;13.316;2023-08-30T03:28:25;3.47;;;2.47;;
6825;SDS011;3451;52.476;13.316;2023-08-30T03:30:51;8.53;;;2.47;;
6825;SDS011;3451;52.476;13.316;2023-08-30T03:33:17;2.83;;;2.23;;
6825;SDS011;3451;52.476;13.316;2023-08-30T03:35:44;4.77;;;2.40;;
6825;SDS011;3451;52.476;13.316;2023-08-30T03:38:10;3.00;;;2.47;;
6825;SDS011;3451;52.476;13.316;2023-08-30T03:40:37;3.90;;;2.40;;
6825;SDS011;3451;52.476;13.316;2023-08-30T03:43:05;2.80;;;2.33;;
6825;SDS011;3451;52.476;13.316;2023-08-30T03:45:34;2.83;;;2.20;;
6825;SDS011;3451;52.476;13.316;2023-08-30T03:48:00;3.93;;;2.33;;
6825;SDS011;3451;52.476;13.316;2023-08-30T03:50:27;3.53;;;2.17;;
6825;SDS011;3451;52.476;13.316;2023-08-30T03:52:53;5.03;;;2.33;;
6825;SDS011;3451;52.476;13.316;2023-08-30T03:55:19;3.53;;;2.10;;
6825;SDS011;3451;52.476;13.316;2023-08-30T03:57:47;4.87;;;2.30;;
6825;SDS011;3451;52.476;13.316;2023-08-30T04:00:13;2.70;;;2.40;;
6825;SDS011;3451;52.476;13.316;2023-08-30T04:02:39;3.03;;;2.27;;
6825;SDS011;3451;52.476;13.316;2023-08-30T04:05:06;2.93;;;2.27;;
6825;SDS011;3451;52.476;13.316;2023-08-30T04:07:35;6.27;;;2.70;;
6825;SDS011;3451;52.476;13.316;2023-08-30T04:10:02;5.20;;;2.40;;
6825;SDS011;3451;52.476;13.316;2023-08-30T04:12:32;3.43;;;2.27;;
6825;SDS011;3451;52.476;13.316;2023-08-30T04:14:58;4.57;;;2.60;;
6825;SDS011;3451;52.476;13.316;2023-08-30T04:17:25;4.37;;;2.63;;
6825;SDS011;3451;52.476;13.316;2023-08-30T04:19:51;4.40;;;2.40;;
6825;SDS011;3451;52.476;13.316;2023-08-30T04:22:18;3.73;;;2.33;;
6825;SDS011;3451;52.476;13.316;2023-08-30T04:24:45;3.37;;;2.50;;
6825;SDS011;3451;52.476;13.316;2023-08-30T04:27:11;3.47;;;2.67;;
6825;SDS011;3451;52.476;13.316;2023-08-30T04:29:37;3.20;;;2.60;;
6825;SDS011;3451;52.476;13.316;2023-08-30T04:32:04;3.60;;;2.50;;
6825;SDS011;3451;52.476;13.316;2023-08-30T04:34:30;5.07;;;2.70;;
6825;SDS011;3451;52.476;13.316;2023-08-30T04:36:57;3.97;;;2.77;;
6825;SDS011;3451;52.476;13.316;2023-08-30T04:39:23;4.27;;;2.70;;
6825;SDS011;3451;52.476;13.316;2023-08-30T04:41:49;3.57;;;2.87;;
6825;SDS011;3451;52.476;13.316;2023-08-30T04:44:16;5.30;;;2.87;;
6825;SDS011;3451;52.476;13.316;2023-08-30T04:46:43;4.00;;;3.20;;
6825;SDS011;3451;52.476;13.316;2023-08-30T04:49:09;4.40;;;3.50;;
6825;SDS011;3451;52.476;13.316;2023-08-30T04:51:36;5.50;;;3.20;;
6825;SDS011;3451;52.476;13.316;2023-08-30T04:54:02;5.57;;;2.87;;
6825;SDS011;3451;52.476;13.316;2023-08-30T04:56:28;5.50;;;3.03;;
6825;SDS011;3451;52.476;13.316;2023-08-30T04:58:55;3.60;;;2.90;;
6825;SDS011;3451;52.476;13.316;2023-08-30T05:01:23;4.30;;;2.70;;
6825;SDS011;3451;52.476;13.316;2023-08-30T05:03:49;4.20;;;3.00;;
6825;SDS011;3451;52.476;13.316;2023-08-30T05:06:17;4.47;;;2.77;;
6825;SDS011;3451;52.476;13.316;2023-08-30T05:08:43;2.97;;;2.60;;
6825;SDS011;3451;52.476;13.316;2023-08-30T05:11:09;5.67;;;2.90;;
6825;SDS011;3451;52.476;13.316;2023-08-30T05:13:36;3.60;;;2.50;;
6825;SDS011;3451;52.476;13.316;2023-08-30T05:16:02;2.90;;;2.60;;
6825;SDS011;3451;52.476;13.316;2023-08-30T05:18:29;3.33;;;2.80;;
6825;SDS011;3451;52.476;13.316;2023-08-30T05:20:55;4.77;;;2.77;;
6825;SDS011;3451;52.476;13.316;2023-08-30T05:23:22;4.20;;;2.80;;
6825;SDS011;3451;52.476;13.316;2023-08-30T05:25:48;3.63;;;2.93;;
6825;SDS011;3451;52.476;13.316;2023-08-30T05:28:14;5.00;;;3.03;;
6825;SDS011;3451;52.476;13.316;2023-08-30T05:30:41;3.10;;;2.77;;
6825;SDS011;3451;52.476;13.316;2023-08-30T05:33:08;4.07;;;2.70;;
6825;SDS011;3451;52.476;13.316;2023-08-30T05:35:34;5.43;;;3.37;;
6825;SDS011;3451;52.476;13.316;2023-08-30T05:38:01;5.13;;;3.57;;
6825;SDS011;3451;52.476;13.316;2023-08-30T05:40:27;5.63;;;3.20;;
6825;SDS011;3451;52.476;13.316;2023-08-30T05:42:53;3.90;;;3.23;;
6825;SDS011;3451;52.476;13.316;2023-08-30T05:45:21;4.53;;;3.00;;
6825;SDS011;3451;52.476;13.316;2023-08-30T05:47:47;2.93;;;2.60;;
6825;SDS011;3451;52.476;13.316;2023-08-30T05:50:14;5.03;;;3.17;;
6825;SDS011;3451;52.476;13.316;2023-08-30T05:52:40;5.37;;;3.03;;
6825;SDS011;3451;52.476;13.316;2023-08-30T05:55:08;3.83;;;2.83;;
6825;SDS011;3451;52.476;13.316;2023-08-30T05:57:35;3.37;;;2.80;;
6825;SDS011;3451;52.476;13.316;2023-08-30T06:00:01;6.20;;;2.70;;
6825;SDS011;3451;52.476;13.316;2023-08-30T06:02:28;3.20;;;2.47;;
6825;SDS011;3451;52.476;13.316;2023-08-30T06:04:54;4.60;;;2.90;;
6825;SDS011;3451;52.476;13.316;2023-08-30T06:07:20;2.93;;;2.50;;
6825;SDS011;3451;52.476;13.316;2023-08-30T06:09:47;5.40;;;3.30;;
6825;SDS011;3451;52.476;13.316;2023-08-30T06:12:13;3.53;;;2.43;;
6825;SDS011;3451;52.476;13.316;2023-08-30T06:14:40;3.27;;;2.80;;
6825;SDS011;3451;52.476;13.316;2023-08-30T06:17:06;3.77;;;2.60;;
6825;SDS011;3451;52.476;13.316;2023-08-30T06:19:32;4.53;;;2.60;;
6825;SDS011;3451;52.476;13.316;2023-08-30T06:21:58;3.13;;;2.43;;
6825;SDS011;3451;52.476;13.316;2023-08-30T06:24:30;3.87;;;2.60;;
6825;SDS011;3451;52.476;13.316;2023-08-30T06:26:56;3.50;;;2.37;;
6825;SDS011;3451;52.476;13.316;2023-08-30T06:29:23;3.00;;;2.40;;
6825;SDS011;3451;52.476;13.316;2023-08-30T06:31:49;2.90;;;2.40;;
6825;SDS011;3451;52.476;13.316;2023-08-30T06:34:15;3.73;;;2.63;;
6825;SDS011;3451;52.476;13.316;2023-08-30T06:36:42;3.77;;;2.50;;
6825;SDS011;3451;52.476;13.316;2023-08-30T06:39:09;4.37;;;2.63;;
6825;SDS011;3451;52.476;13.316;2023-08-30T06:41:35;2.83;;;2.53;;
6825;SDS011;3451;52.476;13.316;2023-08-30T06:44:01;3.33;;;2.80;;
6825;SDS011;3451;52.476;13.316;2023-08-30T06:46:28;3.03;;;2.33;;
6825;SDS011;3451;52.476;13.316;2023-08-30T06:48:54;3.03;;;2.37;;
6825;SDS011;3451;52.476;13.316;2023-08-30T06:51:20;3.83;;;2.50;;
6825;SDS011;3451;52.476;13.316;2023-08-30T06:53:47;3.80;;;2.60;;
6825;SDS011;3451;52.476;13.316;2023-08-30T06:56:13;2.70;;;2.20;;
6825;SDS011;3451;52.476;13.316;2023-08-30T06:58:39;6.07;;;2.70;;
6825;SDS011;3451;52.476;13.316;2023-08-30T07:01:06;5.13;;;2.50;;
6825;SDS011;3451;52.476;13.316;2023-08-30T07:03:32;3.60;;;2.30;;
6825;SDS011;3451;52.476;13.316;2023-08-30T07:05:59;2.57;;;2.10;;
6825;SDS011;3451;52.476;13.316;2023-08-30T07:08:25;5.00;;;2.00;;
6825;SDS011;3451;52.476;13.316;2023-08-30T07:10:52;3.23;;;2.03;;
6825;SDS011;3451;52.476;13.316;2023-08-30T07:13:19;2.43;;;1.97;;
6825;SDS011;3451;52.476;13.316;2023-08-30T07:15:45;4.27;;;2.27;;
6825;SDS011;3451;52.476;13.316;2023-08-30T07:18:13;1.90;;;1.60;;
6825;SDS011;3451;52.476;13.316;2023-08-30T07:20:39;3.13;;;1.90;;
6825;SDS011;3451;52.476;13.316;2023-08-30T07:23:06;3.00;;;1.70;;
6825;SDS011;3451;52.476;13.316;2023-08-30T07:25:36;2.53;;;1.50;;
6825;SDS011;3451;52.476;13.316;2023-08-30T07:28:03;3.93;;;1.47;;
6825;SDS011;3451;52.476;13.316;2023-08-30T07:30:30;4.00;;;1.43;;
6825;SDS011;3451;52.476;13.316;2023-08-30T07:32:56;3.63;;;1.47;;
6825;SDS011;3451;52.476;13.316;2023-08-30T07:35:22;2.13;;;1.50;;
6825;SDS011;3451;52.476;13.316;2023-08-30T07:37:49;1.90;;;1.50;;
6825;SDS011;3451;52.476;13.316;2023-08-30T07:40:15;7.53;;;1.70;;
6825;SDS011;3451;52.476;13.316;2023-08-30T07:42:41;2.53;;;1.60;;
6825;SDS011;3451;52.476;13.316;2023-08-30T07:45:08;2.23;;;1.63;;
6825;SDS011;3451;52.476;13.316;2023-08-30T07:47:35;2.60;;;1.57;;
6825;SDS011;3451;52.476;13.316;2023-08-30T07:50:04;3.30;;;1.40;;
6825;SDS011;3451;52.476;13.316;2023-08-30T07:52:30;3.70;;;1.60;;
6825;SDS011;3451;52.476;13.316;2023-08-30T07:55:10;2.83;;;1.70;;
6825;SDS011;3451;52.476;13.316;2023-08-30T07:57:36;2.00;;;1.43;;
6825;SDS011;3451;52.476;13.316;2023-08-30T08:00:02;3.53;;;1.97;;
6825;SDS011;3451;52.476;13.316;2023-08-30T08:02:29;3.17;;;1.80;;
6825;SDS011;3451;52.476;13.316;2023-08-30T08:04:55;3.37;;;1.80;;
6825;SDS011;3451;52.476;13.316;2023-08-30T08:07:22;5.23;;;2.10;;
6825;SDS011;3451;52.476;13.316;2023-08-30T08:09:48;3.33;;;1.80;;
6825;SDS011;3451;52.476;13.316;2023-08-30T08:12:14;4.90;;;1.80;;
6825;SDS011;3451;52.476;13.316;2023-08-30T08:14:40;4.73;;;2.10;;
6825;SDS011;3451;52.476;13.316;2023-08-30T08:17:07;5.00;;;1.90;;
6825;SDS011;3451;52.476;13.316;2023-08-30T08:19:33;3.70;;;1.63;;
6825;SDS011;3451;52.476;13.316;2023-08-30T08:21:59;2.27;;;1.70;;
6825;SDS011;3451;52.476;13.316;2023-08-30T08:24:26;5.50;;;1.80;;
6825;SDS011;3451;52.476;13.316;2023-08-30T08:26:52;3.10;;;1.97;;
6825;SDS011;3451;52.476;13.316;2023-08-30T08:29:18;2.00;;;1.60;;
6825;SDS011;3451;52.476;13.316;2023-08-30T08:31:45;4.67;;;1.80;;
6825;SDS011;3451;52.476;13.316;2023-08-30T08:34:12;2.13;;;1.67;;
6825;SDS011;3451;52.476;13.316;2023-08-30T08:36:39;2.73;;;2.20;;
6825;SDS011;3451;52.476;13.316;2023-08-30T08:39:05;2.93;;;1.90;;
6825;SDS011;3451;52.476;13.316;2023-08-30T08:41:39;1.90;;;1.57;;
6825;SDS011;3451;52.476;13.316;2023-08-30T08:44:06;2.67;;;1.87;;
6825;SDS011;3451;52.476;13.316;2023-08-30T08:46:36;3.53;;;1.63;;
6825;SDS011;3451;52.476;13.316;2023-08-30T08:49:08;2.63;;;1.73;;
6825;SDS011;3451;52.476;13.316;2023-08-30T08:51:36;4.33;;;1.90;;
6825;SDS011;3451;52.476;13.316;2023-08-30T08:54:03;5.53;;;1.90;;
6825;SDS011;3451;52.476;13.316;2023-08-30T08:56:32;4.90;;;2.37;;
6825;SDS011;3451;52.476;13.316;2023-08-30T08:59:00;3.90;;;2.00;;
6825;SDS011;3451;52.476;13.316;2023-08-30T09:01:27;4.20;;;2.27;;
6825;SDS011;3451;52.476;13.316;2023-08-30T09:04:04;2.77;;;1.93;;
6825;SDS011;3451;52.476;13.316;2023-08-30T09:06:30;2.43;;;1.70;;
6825;SDS011;3451;52.476;13.316;2023-08-30T09:08:57;2.93;;;1.80;;
6825;SDS011;3451;52.476;13.316;2023-08-30T09:11:23;3.57;;;1.90;;
6825;SDS011;3451;52.476;13.316;2023-08-30T09:14:05;2.57;;;1.50;;
6825;SDS011;3451;52.476;13.316;2023-08-30T09:16:31;2.77;;;1.80;;
6825;SDS011;3451;52.476;13.316;2023-08-30T09:19:01;3.07;;;1.70;;
6825;SDS011;3451;52.476;13.316;2023-08-30T09:21:30;3.13;;;1.77;;
6825;SDS011;3451;52.476;13.316;2023-08-30T09:24:01;4.20;;;1.80;;
6825;SDS011;3451;52.476;13.316;2023-08-30T09:26:30;2.90;;;1.90;;
6825;SDS011;3451;52.476;13.316;2023-08-30T09:29:02;3.57;;;1.60;;
6825;SDS011;3451;52.476;13.316;2023-08-30T09:31:35;2.43;;;1.97;;
6825;SDS011;3451;52.476;13.316;2023-08-30T09:34:02;4.10;;;1.50;;
6825;SDS011;3451;52.476;13.316;2023-08-30T09:36:35;3.03;;;1.70;;
6825;SDS011;3451;52.476;13.316;2023-08-30T09:39:08;4.10;;;1.87;;
6825;SDS011;3451;52.476;13.316;2023-08-30T09:41:42;2.93;;;1.90;;
6825;SDS011;3451;52.476;13.316;2023-08-30T09:44:12;3.07;;;1.63;;
6825;SDS011;3451;52.476;13.316;2023-08-30T09:47:14;3.37;;;1.60;;
6825;SDS011;3451;52.476;13.316;2023-08-30T09:49:34;3.17;;;1.43;;
6825;SDS011;3451;52.476;13.316;2023-08-30T09:52:04;3.57;;;1.73;;
6825;SDS011;3451;52.476;13.316;2023-08-30T09:54:34;3.27;;;1.70;;
6825;SDS011;3451;52.476;13.316;2023-08-30T09:57:05;2.63;;;1.67;;
6825;SDS011;3451;52.476;13.316;2023-08-30T09:59:32;3.20;;;1.67;;
6825;SDS011;3451;52.476;13.316;2023-08-30T10:01:59;3.30;;;1.30;;
6825;SDS011;3451;52.476;13.316;2023-08-30T10:04:26;3.77;;;1.40;;
6825;SDS011;3451;52.476;13.316;2023-08-30T10:06:54;3.00;;;1.40;;
6825;SDS011;3451;52.476;13.316;2023-08-30T10:09:21;4.97;;;1.30;;
6825;SDS011;3451;52.476;13.316;2023-08-30T10:11:48;2.83;;;1.23;;
6825;SDS011;3451;52.476;13.316;2023-08-30T10:14:15;2.57;;;1.20;;
6825;SDS011;3451;52.476;13.316;2023-08-30T10:16:42;2.20;;;1.30;;
6825;SDS011;3451;52.476;13.316;2023-08-30T10:19:17;2.60;;;1.20;;
6825;SDS011;3451;52.476;13.316;2023-08-30T10:21:43;4.00;;;1.43;;
6825;SDS011;3451;52.476;13.316;2023-08-30T10:24:14;3.47;;;1.33;;
6825;SDS011;3451;52.476;13.316;2023-08-30T10:26:59;4.17;;;1.10;;
6825;SDS011;3451;52.476;13.316;2023-08-30T10:29:26;2.07;;;1.10;;
6825;SDS011;3451;52.476;13.316;2023-08-30T10:31:54;2.23;;;1.20;;
6825;SDS011;3451;52.476;13.316;2023-08-30T10:34:20;2.00;;;1.20;;
6825;SDS011;3451;52.476;13.316;2023-08-30T10:37:00;2.07;;;1.10;;
6825;SDS011;3451;52.476;13.316;2023-08-30T10:39:32;1.83;;;1.20;;
6825;SDS011;3451;52.476;13.316;2023-08-30T10:41:59;2.10;;;0.90;;
6825;SDS011;3451;52.476;13.316;2023-08-30T10:44:26;1.43;;;1.10;;
6825;SDS011;3451;52.476;13.316;2023-08-30T10:46:53;2.57;;;1.10;;
6825;SDS011;3451;52.476;13.316;2023-08-30T10:49:20;1.77;;;0.83;;
6825;SDS011;3451;52.476;13.316;2023-08-30T10:51:54;1.20;;;1.10;;
6825;SDS011;3451;52.476;13.316;2023-08-30T10:54:20;1.63;;;1.00;;
6825;SDS011;3451;52.476;13.316;2023-08-30T10:59:20;3.53;;;1.10;;
6825;SDS011;3451;52.476;13.316;2023-08-30T11:01:46;2.07;;;1.00;;
6825;SDS011;3451;52.476;13.316;2023-08-30T11:04:14;1.83;;;1.10;;
6825;SDS011;3451;52.476;13.316;2023-08-30T11:06:42;1.63;;;1.10;;
6825;SDS011;3451;52.476;13.316;2023-08-30T11:09:08;2.67;;;1.30;;
6825;SDS011;3451;52.476;13.316;2023-08-30T11:11:36;1.93;;;1.23;;
6825;SDS011;3451;52.476;13.316;2023-08-30T11:14:09;1.67;;;1.10;;
6825;SDS011;3451;52.476;13.316;2023-08-30T11:16:36;1.80;;;1.20;;
6825;SDS011;3451;52.476;13.316;2023-08-30T11:19:06;3.00;;;1.20;;
6825;SDS011;3451;52.476;13.316;2023-08-30T11:21:33;2.07;;;1.03;;
6825;SDS011;3451;52.476;13.316;2023-08-30T11:24:00;2.90;;;1.60;;
6825;SDS011;3451;52.476;13.316;2023-08-30T11:26:26;1.77;;;1.03;;
6825;SDS011;3451;52.476;13.316;2023-08-30T11:28:52;2.47;;;1.10;;
6825;SDS011;3451;52.476;13.316;2023-08-30T11:31:22;5.37;;;1.30;;
6825;SDS011;3451;52.476;13.316;2023-08-30T11:33:52;1.73;;;1.20;;
6825;SDS011;3451;52.476;13.316;2023-08-30T11:36:20;3.20;;;1.20;;
6825;SDS011;3451;52.476;13.316;2023-08-30T11:38:48;2.17;;;1.30;;
6825;SDS011;3451;52.476;13.316;2023-08-30T11:41:14;2.30;;;1.43;;
6825;SDS011;3451;52.476;13.316;2023-08-30T11:43:41;2.40;;;1.33;;
6825;SDS011;3451;52.476;13.316;2023-08-30T11:46:08;3.63;;;1.60;;
6825;SDS011;3451;52.476;13.316;2023-08-30T11:48:35;3.27;;;1.70;;
6825;SDS011;3451;52.476;13.316;2023-08-30T11:51:01;4.87;;;2.97;;
6825;SDS011;3451;52.476;13.316;2023-08-30T11:53:28;4.70;;;1.47;;
6825;SDS011;3451;52.476;13.316;2023-08-30T11:55:55;1.97;;;1.70;;
6825;SDS011;3451;52.476;13.316;2023-08-30T11:58:21;4.23;;;1.70;;
6825;SDS011;3451;52.476;13.316;2023-08-30T12:00:49;2.20;;;1.30;;
6825;SDS011;3451;52.476;13.316;2023-08-30T12:03:16;1.90;;;1.40;;
6825;SDS011;3451;52.476;13.316;2023-08-30T12:05:49;3.33;;;1.37;;
6825;SDS011;3451;52.476;13.316;2023-08-30T12:08:19;3.57;;;1.60;;
6825;SDS011;3451;52.476;13.316;2023-08-30T12:10:46;2.67;;;1.40;;
6825;SDS011;3451;52.476;13.316;2023-08-30T12:13:19;4.07;;;1.60;;
6825;SDS011;3451;52.476;13.316;2023-08-30T12:15:45;3.50;;;1.77;;
6825;SDS011;3451;52.476;13.316;2023-08-30T12:18:12;2.83;;;1.70;;
6825;SDS011;3451;52.476;13.316;2023-08-30T12:20:38;3.07;;;1.40;;
6825;SDS011;3451;52.476;13.316;2023-08-30T12:23:05;2.03;;;1.50;;
6825;SDS011;3451;52.476;13.316;2023-08-30T12:25:31;4.57;;;1.80;;
6825;SDS011;3451;52.476;13.316;2023-08-30T12:27:58;2.17;;;1.60;;
6825;SDS011;3451;52.476;13.316;2023-08-30T12:30:24;2.23;;;1.80;;
6825;SDS011;3451;52.476;13.316;2023-08-30T12:32:59;3.23;;;1.80;;
6825;SDS011;3451;52.476;13.316;2023-08-30T12:35:26;4.40;;;1.70;;
6825;SDS011;3451;52.476;13.316;2023-08-30T12:37:52;2.93;;;1.90;;
6825;SDS011;3451;52.476;13.316;2023-08-30T12:40:18;4.53;;;1.80;;
6825;SDS011;3451;52.476;13.316;2023-08-30T12:42:44;2.80;;;1.80;;
6825;SDS011;3451;52.476;13.316;2023-08-30T12:45:11;2.20;;;1.93;;
6825;SDS011;3451;52.476;13.316;2023-08-30T12:47:37;4.27;;;1.90;;
6825;SDS011;3451;52.476;13.316;2023-08-30T12:50:04;2.80;;;1.60;;
6825;SDS011;3451;52.476;13.316;2023-08-30T12:52:31;2.40;;;1.60;;
6825;SDS011;3451;52.476;13.316;2023-08-30T12:54:58;1.80;;;1.50;;
6825;SDS011;3451;52.476;13.316;2023-08-30T12:57:24;2.50;;;1.60;;
6825;SDS011;3451;52.476;13.316;2023-08-30T12:59:52;2.53;;;1.63;;
6825;SDS011;3451;52.476;13.316;2023-08-30T13:02:18;2.47;;;1.77;;
6825;SDS011;3451;52.476;13.316;2023-08-30T13:04:45;3.20;;;1.90;;
6825;SDS011;3451;52.476;13.316;2023-08-30T13:07:11;3.50;;;1.70;;
6825;SDS011;3451;52.476;13.316;2023-08-30T13:09:37;6.93;;;1.87;;
6825;SDS011;3451;52.476;13.316;2023-08-30T13:12:03;2.60;;;1.90;;
6825;SDS011;3451;52.476;13.316;2023-08-30T13:14:30;2.90;;;2.00;;
6825;SDS011;3451;52.476;13.316;2023-08-30T13:16:56;4.90;;;3.50;;
6825;SDS011;3451;52.476;13.316;2023-08-30T13:19:23;4.53;;;1.90;;
6825;SDS011;3451;52.476;13.316;2023-08-30T13:21:49;2.83;;;1.93;;
6825;SDS011;3451;52.476;13.316;2023-08-30T13:24:15;4.07;;;1.83;;
6825;SDS011;3451;52.476;13.316;2023-08-30T13:26:42;2.50;;;1.97;;
6825;SDS011;3451;52.476;13.316;2023-08-30T13:29:08;5.00;;;2.07;;
6825;SDS011;3451;52.476;13.316;2023-08-30T13:31:34;4.13;;;1.93;;
6825;SDS011;3451;52.476;13.316;2023-08-30T13:34:01;3.43;;;1.67;;
6825;SDS011;3451;52.476;13.316;2023-08-30T13:36:27;2.50;;;1.83;;
6825;SDS011;3451;52.476;13.316;2023-08-30T13:38:57;3.10;;;1.50;;
6825;SDS011;3451;52.476;13.316;2023-08-30T13:41:23;2.30;;;1.67;;
6825;SDS011;3451;52.476;13.316;2023-08-30T13:43:49;1.50;;;1.30;;
6825;SDS011;3451;52.476;13.316;2023-08-30T13:46:16;3.87;;;1.50;;
6825;SDS011;3451;52.476;13.316;2023-08-30T13:48:42;2.63;;;1.70;;
6825;SDS011;3451;52.476;13.316;2023-08-30T13:51:08;2.67;;;1.43;;
6825;SDS011;3451;52.476;13.316;2023-08-30T13:53:38;4.13;;;1.40;;
6825;SDS011;3451;52.476;13.316;2023-08-30T13:56:04;2.00;;;1.67;;
6825;SDS011;3451;52.476;13.316;2023-08-30T13:58:30;3.17;;;1.40;;
6825;SDS011;3451;52.476;13.316;2023-08-30T14:00:57;3.20;;;1.30;;
6825;SDS011;3451;52.476;13.316;2023-08-30T14:03:23;2.97;;;1.80;;
6825;SDS011;3451;52.476;13.316;2023-08-30T14:05:49;2.67;;;1.97;;
6825;SDS011;3451;52.476;13.316;2023-08-30T14:08:16;3.57;;;1.60;;
6825;SDS011;3451;52.476;13.316;2023-08-30T14:10:42;3.17;;;1.63;;
6825;SDS011;3451;52.476;13.316;2023-08-30T14:13:08;2.77;;;1.63;;
6825;SDS011;3451;52.476;13.316;2023-08-30T14:15:35;5.57;;;1.57;;
6825;SDS011;3451;52.476;13.316;2023-08-30T14:18:02;1.87;;;1.40;;
6825;SDS011;3451;52.476;13.316;2023-08-30T14:20:29;3.00;;;1.53;;
6825;SDS011;3451;52.476;13.316;2023-08-30T14:22:55;3.83;;;1.43;;
6825;SDS011;3451;52.476;13.316;2023-08-30T14:25:21;3.13;;;1.23;;
6825;SDS011;3451;52.476;13.316;2023-08-30T14:27:48;1.50;;;1.30;;
6825;SDS011;3451;52.476;13.316;2023-08-30T14:30:14;2.30;;;1.30;;
6825;SDS011;3451;52.476;13.316;2023-08-30T14:32:42;2.33;;;1.50;;
6825;SDS011;3451;52.476;13.316;2023-08-30T14:35:08;3.83;;;1.20;;
6825;SDS011;3451;52.476;13.316;2023-08-30T14:37:35;2.40;;;1.30;;
6825;SDS011;3451;52.476;13.316;2023-08-30T14:40:03;2.80;;;1.97;;
6825;SDS011;3451;52.476;13.316;2023-08-30T14:42:30;3.43;;;1.70;;
6825;SDS011;3451;52.476;13.316;2023-08-30T14:44:58;9.27;;;2.43;;
6825;SDS011;3451;52.476;13.316;2023-08-30T14:47:24;2.93;;;2.20;;
6825;SDS011;3451;52.476;13.316;2023-08-30T14:49:51;2.57;;;1.37;;
6825;SDS011;3451;52.476;13.316;2023-08-30T14:52:17;1.90;;;1.40;;
6825;SDS011;3451;52.476;13.316;2023-08-30T14:54:43;3.20;;;1.30;;
6825;SDS011;3451;52.476;13.316;2023-08-30T14:57:09;2.60;;;1.20;;
6825;SDS011;3451;52.476;13.316;2023-08-30T14:59:36;2.93;;;1.30;;
6825;SDS011;3451;52.476;13.316;2023-08-30T15:02:03;2.70;;;1.50;;
6825;SDS011;3451;52.476;13.316;2023-08-30T15:04:29;2.47;;;1.77;;
6825;SDS011;3451;52.476;13.316;2023-08-30T15:06:56;9.30;;;5.20;;
6825;SDS011;3451;52.476;13.316;2023-08-30T15:09:22;15.23;;;8.23;;